createdAt,value
2019-05-25T00:02:49.438Z,100841.91
2019-05-25T00:05:55.225Z,100839.97
2019-05-25T00:09:11.838Z,100842.75
2019-05-25T00:12:29.470Z,100849.35
2019-05-25T00:15:46.131Z,100852.39
2019-05-25T00:19:02.858Z,100848.83
2019-05-25T00:22:25.692Z,100848.38
2019-05-25T00:25:42.487Z,100851.33
2019-05-25T00:29:05.193Z,100851.33
2019-05-25T00:32:21.847Z,100851.13
2019-05-25T00:35:38.752Z,100853.78
2019-05-25T00:38:55.393Z,100850.00
2019-05-25T00:42:12.353Z,100857.36
2019-05-25T00:45:28.794Z,100851.66
2019-05-25T00:48:45.454Z,100850.75
2019-05-25T00:52:02.310Z,100851.30
2019-05-25T00:55:09.671Z,100857.66
2019-05-25T00:58:26.506Z,100858.41
2019-05-25T01:01:43.004Z,100855.75
2019-05-25T01:04:59.688Z,100856.66
2019-05-25T01:08:16.553Z,100859.69
2019-05-25T01:11:33.218Z,100859.12
2019-05-25T01:14:49.862Z,100861.15
2019-05-25T01:17:57.070Z,100858.96
2019-05-25T01:21:13.663Z,100858.00
2019-05-25T01:24:20.959Z,100864.65
2019-05-25T01:27:28.204Z,100861.25
2019-05-25T01:30:44.985Z,100859.50
2019-05-25T01:34:01.545Z,100858.38
2019-05-25T01:37:18.433Z,100862.33
2019-05-25T01:40:35.083Z,100858.59
2019-05-25T01:43:42.413Z,100863.00
2019-05-25T01:46:59.092Z,100863.98
2019-05-25T01:50:16.626Z,100860.88
2019-05-25T01:53:24.037Z,100860.75
2019-05-25T01:56:31.493Z,100864.91
2019-05-25T01:59:38.918Z,100861.88
2019-05-25T02:02:57.741Z,100855.45
2019-05-25T02:06:14.423Z,100858.92
2019-05-25T02:09:31.127Z,100861.13
2019-05-25T02:12:47.954Z,100850.59
2019-05-25T02:16:04.712Z,100856.89
2019-05-25T02:19:10.441Z,100854.62
2019-05-25T02:22:29.490Z,100858.02
2019-05-25T02:25:46.174Z,100855.15
2019-05-25T02:29:03.060Z,100858.64
2019-05-25T02:32:19.622Z,100854.78
2019-05-25T02:35:36.472Z,100858.94
2019-05-25T02:38:59.115Z,100859.02
2019-05-25T02:42:15.852Z,100850.84
2019-05-25T02:45:32.607Z,100864.37
2019-05-25T02:48:55.288Z,100868.69
2019-05-25T02:52:01.575Z,100871.05
2019-05-25T02:55:10.745Z,100873.22
2019-05-25T02:58:18.069Z,100875.13
2019-05-25T03:01:25.558Z,100871.63
2019-05-25T03:04:33.026Z,100869.57
2019-05-25T03:07:50.248Z,100873.67
2019-05-25T03:10:58.059Z,100873.84
2019-05-25T03:14:05.479Z,100879.11
2019-05-25T03:17:13.137Z,100880.40
2019-05-25T03:20:29.617Z,100875.50
2019-05-25T03:23:52.427Z,100876.33
2019-05-25T03:27:09.092Z,100868.98
2019-05-25T03:30:34.224Z,100881.55
2019-05-25T03:33:41.606Z,100884.80
2019-05-25T03:36:49.105Z,100886.91
2019-05-25T03:39:56.416Z,100890.31
2019-05-25T03:43:02.695Z,100887.82
2019-05-25T03:46:19.322Z,100887.08
2019-05-25T03:49:37.934Z,100889.11
2019-05-25T03:52:45.188Z,100893.95
2019-05-25T03:56:06.051Z,100893.64
2019-05-25T03:59:22.802Z,100894.92
2019-05-25T04:02:39.843Z,100899.23
2019-05-25T04:05:56.406Z,100898.86
2019-05-25T04:09:13.011Z,100903.92
2019-05-25T04:12:19.526Z,100902.34
2019-05-25T04:15:26.841Z,100907.87
2019-05-25T04:18:35.217Z,100906.00
2019-05-25T04:21:42.637Z,100899.56
2019-05-25T04:24:50.142Z,100896.83
2019-05-25T04:27:57.780Z,100903.51
2019-05-25T04:31:05.275Z,100913.72
2019-05-25T04:34:11.529Z,100912.76
2019-05-25T04:37:18.807Z,100909.65
2019-05-25T04:40:26.202Z,100911.14
2019-05-25T04:43:32.463Z,100909.24
2019-05-25T04:46:38.158Z,100918.33
2019-05-25T04:49:54.637Z,100921.20
2019-05-25T04:53:11.325Z,100913.76
2019-05-25T04:56:39.294Z,100920.11
2019-05-25T04:59:52.317Z,100923.20
2019-05-25T05:02:59.623Z,100924.58
2019-05-25T05:06:16.473Z,100926.36
2019-05-25T05:09:33.052Z,100921.50
2019-05-25T05:12:49.815Z,100923.19
2019-05-25T05:16:06.639Z,100922.41
2019-05-25T05:19:23.277Z,100921.02
2019-05-25T05:22:30.595Z,100930.58
2019-05-25T05:25:47.276Z,100932.69
2019-05-25T05:28:53.105Z,100942.78
2019-05-25T05:32:09.577Z,100936.00
2019-05-25T05:35:26.254Z,100939.70
2019-05-25T05:38:43.290Z,100935.33
2019-05-25T05:41:59.788Z,100942.05
2019-05-25T05:45:16.859Z,100940.30
2019-05-25T05:48:33.699Z,100942.71
2019-05-25T05:51:56.240Z,100940.80
2019-05-25T05:55:13.260Z,100947.32
2019-05-25T05:58:29.818Z,100949.38
2019-05-25T06:01:46.463Z,100950.67
2019-05-25T06:05:03.565Z,100946.09
2019-05-25T06:08:11.364Z,100953.67
2019-05-25T06:11:18.724Z,100956.20
2019-05-25T06:14:24.875Z,100954.91
2019-05-25T06:17:41.550Z,100958.72
2019-05-25T06:20:58.229Z,100956.29
2019-05-25T06:24:14.951Z,100962.47
2019-05-25T06:27:31.751Z,100966.34
2019-05-25T06:30:48.699Z,100971.55
2019-05-25T06:34:05.209Z,100971.84
2019-05-25T06:37:21.957Z,100970.23
2019-05-25T06:40:38.683Z,100970.06
2019-05-25T06:43:55.252Z,100971.06
2019-05-25T06:47:15.048Z,100972.91
2019-05-25T06:50:31.758Z,100978.58
2019-05-25T06:53:39.097Z,100983.80
2019-05-25T06:56:58.218Z,100983.30
2019-05-25T07:00:06.198Z,100985.59
2019-05-25T07:03:13.703Z,100991.58
2019-05-25T07:06:21.130Z,100988.45
2019-05-25T07:09:28.348Z,100991.03
2019-05-25T07:12:35.695Z,100991.77
2019-05-25T07:15:42.978Z,100989.59
2019-05-25T07:18:50.149Z,100993.84
2019-05-25T07:22:07.105Z,100991.27
2019-05-25T07:25:24.072Z,100989.84
2019-05-25T07:28:29.770Z,100993.30
2019-05-25T07:31:37.136Z,100990.66
2019-05-25T07:34:44.616Z,100995.37
2019-05-25T07:37:52.176Z,100999.06
2019-05-25T07:40:59.826Z,100999.63
2019-05-25T07:44:16.419Z,100994.13
2019-05-25T07:47:33.166Z,100993.86
2019-05-25T07:50:49.891Z,100994.53
2019-05-25T07:54:06.693Z,100998.78
2019-05-25T07:57:29.388Z,100998.45
2019-05-25T08:00:46.200Z,101001.12
2019-05-25T08:04:02.918Z,101004.75
2019-05-25T08:07:19.699Z,101002.02
2019-05-25T08:10:36.378Z,101003.97
2019-05-25T08:13:53.207Z,101004.42
2019-05-25T08:17:09.978Z,101001.95
2019-05-25T08:20:15.775Z,101012.02
2019-05-25T08:23:32.204Z,101021.27
2019-05-25T08:26:48.980Z,101024.52
2019-05-25T08:30:06.170Z,101027.00
2019-05-25T08:33:13.650Z,101034.76
2019-05-25T08:36:21.081Z,101031.98
2019-05-25T08:39:28.368Z,101038.81
2019-05-25T08:42:35.633Z,101042.53
2019-05-25T08:45:43.097Z,101047.33
2019-05-25T08:48:50.571Z,101049.53
2019-05-25T08:52:07.306Z,101051.10
2019-05-25T08:55:13.054Z,101053.99
2019-05-25T08:58:47.559Z,101049.27
2019-05-25T09:01:50.967Z,101052.89
2019-05-25T09:05:07.875Z,101053.53
2019-05-25T09:08:33.470Z,101058.41
2019-05-25T09:11:50.300Z,101060.73
2019-05-25T09:15:07.203Z,101068.03
2019-05-25T09:18:29.799Z,101072.55
2019-05-25T09:22:01.919Z,101074.67
2019-05-25T09:25:11.443Z,101070.33
2019-05-25T09:28:18.818Z,101074.30
2019-05-25T09:31:26.179Z,101073.28
2019-05-25T09:34:33.792Z,101078.39
2019-05-25T09:37:41.306Z,101079.39
2019-05-25T09:40:58.162Z,101086.33
2019-05-25T09:44:20.798Z,101078.57
2019-05-25T09:47:37.633Z,101080.96
2019-05-25T09:50:54.348Z,101081.13
2019-05-25T09:54:17.504Z,101084.45
2019-05-25T09:57:24.828Z,101082.89
2019-05-25T10:00:32.239Z,101092.58
2019-05-25T10:03:39.579Z,101085.48
2019-05-25T10:06:46.965Z,101090.29
2019-05-25T10:09:54.603Z,101088.70
2019-05-25T10:13:01.889Z,101079.81
2019-05-25T10:16:24.731Z,101069.92
2019-05-25T10:19:41.471Z,101074.27
2019-05-25T10:23:04.272Z,101075.16
2019-05-25T10:26:26.862Z,101072.01
2019-05-25T10:29:43.719Z,101074.63
2019-05-25T10:33:00.402Z,101064.05
2019-05-25T10:36:17.231Z,101060.79
2019-05-25T10:39:24.352Z,101071.30
2019-05-25T10:42:31.725Z,101073.98
2019-05-25T10:45:48.429Z,101066.81
2019-05-25T10:49:05.188Z,101060.21
2019-05-25T10:52:21.874Z,101063.31
2019-05-25T10:55:29.292Z,101068.39
2019-05-25T10:58:45.834Z,101064.99
2019-05-25T11:02:02.713Z,101066.66
2019-05-25T11:05:19.714Z,101060.98
2019-05-25T11:08:27.245Z,101068.47
2019-05-25T11:11:34.896Z,101077.22
2019-05-25T11:14:42.266Z,101073.58
2019-05-25T11:17:49.530Z,101069.12
2019-05-25T11:20:56.851Z,101073.19
2019-05-25T11:24:04.337Z,101080.92
2019-05-25T11:27:26.869Z,101080.63
2019-05-25T11:30:43.657Z,101076.27
2019-05-25T11:34:00.505Z,101075.48
2019-05-25T11:37:17.199Z,101074.94
2019-05-25T11:40:23.644Z,101074.14
2019-05-25T11:43:31.004Z,101074.14
2019-05-25T11:46:38.600Z,101071.55
2019-05-25T11:49:44.275Z,101064.92
2019-05-25T11:52:51.706Z,101064.92
2019-05-25T11:56:08.416Z,101075.94
2019-05-25T11:59:25.221Z,101072.22
2019-05-25T12:02:41.948Z,101067.63
2019-05-25T12:05:58.726Z,101069.92
2019-05-25T12:09:07.241Z,101065.64
2019-05-25T12:12:14.853Z,101060.05
2019-05-25T12:15:31.528Z,101058.59
2019-05-25T12:18:56.580Z,101059.59
2019-05-25T12:22:13.516Z,101072.57
2019-05-25T12:25:30.137Z,101070.69
2019-05-25T12:28:46.999Z,101070.83
2019-05-25T12:32:03.672Z,101075.52
2019-05-25T12:35:19.238Z,101069.22
2019-05-25T12:38:26.787Z,101076.27
2019-05-25T12:41:34.459Z,101069.35
2019-05-25T12:44:41.838Z,101073.13
2019-05-25T12:47:58.593Z,101062.05
2019-05-25T12:51:04.361Z,101059.92
2019-05-25T12:54:20.911Z,101057.73
2019-05-25T12:57:37.602Z,101066.70
2019-05-25T13:00:56.281Z,101068.60
2019-05-25T13:04:12.838Z,101065.56
2019-05-25T13:07:32.530Z,101072.50
2019-05-25T13:10:49.292Z,101078.64
2019-05-25T13:14:14.056Z,101076.78
2019-05-25T13:17:25.212Z,101076.31
2019-05-25T13:20:31.528Z,101075.91
2019-05-25T13:23:38.854Z,101082.89
2019-05-25T13:26:46.241Z,101089.07
2019-05-25T13:29:53.692Z,101089.34
2019-05-25T13:32:59.522Z,101091.00
2019-05-25T13:36:16.055Z,101098.72
2019-05-25T13:39:32.713Z,101101.33
2019-05-25T13:42:40.081Z,101101.28
2019-05-25T13:45:56.705Z,101103.52
2019-05-25T13:49:13.602Z,101103.72
2019-05-25T13:52:30.419Z,101100.16
2019-05-25T13:55:47.174Z,101106.38
2019-05-25T13:59:03.933Z,101107.78
2019-05-25T14:02:20.616Z,101116.39
2019-05-25T14:05:37.550Z,101111.86
2019-05-25T14:08:54.175Z,101109.93
2019-05-25T14:12:10.993Z,101119.95
2019-05-25T14:15:33.963Z,101111.23
2019-05-25T14:18:50.557Z,101113.69
2019-05-25T14:22:07.251Z,101111.78
2019-05-25T14:25:23.897Z,101109.10
2019-05-25T14:28:31.331Z,101109.10
2019-05-25T14:31:47.952Z,101108.19
2019-05-25T14:35:05.022Z,101106.42
2019-05-25T14:38:21.503Z,101100.77
2019-05-25T14:41:48.256Z,101105.95
2019-05-25T14:45:05.516Z,101100.69
2019-05-25T14:48:12.906Z,101099.33
2019-05-25T14:51:20.601Z,101103.94
2019-05-25T14:54:28.071Z,101103.22
2019-05-25T14:57:35.454Z,101093.53
2019-05-25T15:00:52.194Z,101101.45
2019-05-25T15:04:14.863Z,101102.50
2019-05-25T15:07:22.163Z,101103.27
2019-05-25T15:10:38.982Z,101088.36
2019-05-25T15:13:55.677Z,101090.53
2019-05-25T15:17:18.492Z,101095.09
2019-05-25T15:20:37.845Z,101100.97
2019-05-25T15:23:57.050Z,101100.58
2019-05-25T15:27:13.746Z,101087.44
2019-05-25T15:30:19.767Z,101087.44
2019-05-25T15:33:27.227Z,101083.63
2019-05-25T15:36:34.604Z,101092.52
2019-05-25T15:39:41.965Z,101093.50
2019-05-25T15:42:49.387Z,101096.09
2019-05-25T15:45:56.992Z,101095.94
2019-05-25T15:49:13.688Z,101097.96
2019-05-25T15:52:21.055Z,101105.34
2019-05-25T15:55:37.620Z,101097.28
2019-05-25T15:58:44.901Z,101097.64
2019-05-25T16:02:01.648Z,101088.57
2019-05-25T16:05:24.488Z,101100.45
2019-05-25T16:08:41.202Z,101096.67
2019-05-25T16:11:58.003Z,101090.53
2019-05-25T16:15:19.029Z,101095.22
2019-05-25T16:18:26.424Z,101105.16
2019-05-25T16:21:33.754Z,101108.92
2019-05-25T16:24:41.208Z,101108.92
2019-05-25T16:27:57.942Z,101109.86
2019-05-25T16:31:14.682Z,101109.23
2019-05-25T16:34:31.504Z,101108.22
2019-05-25T16:37:48.526Z,101111.95
2019-05-25T16:40:56.115Z,101106.38
2019-05-25T16:44:03.482Z,101106.38
2019-05-25T16:47:10.842Z,101101.89
2019-05-25T16:50:19.815Z,101108.74
2019-05-25T16:53:27.140Z,101105.80
2019-05-25T16:56:34.637Z,101104.34
2019-05-25T16:59:51.411Z,101095.19
2019-05-25T17:03:08.122Z,101093.94
2019-05-25T17:06:24.822Z,101093.48
2019-05-25T17:09:32.192Z,101098.20
2019-05-25T17:12:48.799Z,101094.61
2019-05-25T17:16:05.706Z,101096.17
2019-05-25T17:19:22.339Z,101095.52
2019-05-25T17:22:29.660Z,101089.80
2019-05-25T17:25:46.249Z,101091.09
2019-05-25T17:28:53.525Z,101099.62
2019-05-25T17:32:10.197Z,101091.09
2019-05-25T17:35:26.991Z,101092.02
2019-05-25T17:38:43.751Z,101089.73
2019-05-25T17:42:00.544Z,101091.95
2019-05-25T17:45:17.386Z,101093.23
2019-05-25T17:48:34.082Z,101085.11
2019-05-25T17:51:50.754Z,101087.43
2019-05-25T17:55:08.149Z,101083.91
2019-05-25T17:58:15.506Z,101087.42
2019-05-25T18:01:22.926Z,101092.42
2019-05-25T18:04:30.342Z,101093.33
2019-05-25T18:07:37.684Z,101098.05
2019-05-25T18:10:54.318Z,101091.77
2019-05-25T18:14:03.551Z,101092.23
2019-05-25T18:17:26.147Z,101089.34
2019-05-25T18:20:43.271Z,101095.25
2019-05-25T18:23:59.919Z,101098.37
2019-05-25T18:27:06.732Z,101093.64
2019-05-25T18:30:14.383Z,101093.16
2019-05-25T18:33:31.065Z,101094.02
2019-05-25T18:36:47.727Z,101095.95
2019-05-25T18:40:04.681Z,101091.70
2019-05-25T18:43:10.915Z,101090.45
2019-05-25T18:46:16.706Z,101089.52
2019-05-25T18:49:24.017Z,101093.27
2019-05-25T18:52:31.396Z,101093.00
2019-05-25T18:55:38.769Z,101083.64
2019-05-25T18:58:55.550Z,101080.28
2019-05-25T19:02:02.898Z,101086.09
2019-05-25T19:05:20.408Z,101089.09
2019-05-25T19:08:26.710Z,101091.94
2019-05-25T19:11:35.947Z,101093.41
2019-05-25T19:14:52.273Z,101095.68
2019-05-25T19:18:19.225Z,101098.91
2019-05-25T19:21:35.821Z,101102.90
2019-05-25T19:24:52.515Z,101102.70
2019-05-25T19:28:09.244Z,101106.95
2019-05-25T19:31:16.610Z,101112.42
2019-05-25T19:34:33.222Z,101118.65
2019-05-25T19:37:55.953Z,101116.30
2019-05-25T19:41:12.600Z,101118.85
2019-05-25T19:44:18.926Z,101116.02
2019-05-25T19:47:25.746Z,101119.34
2019-05-25T19:50:42.144Z,101119.10
2019-05-25T19:53:49.463Z,101115.95
2019-05-25T19:57:06.271Z,101115.03
2019-05-25T20:00:22.897Z,101104.34
2019-05-25T20:03:39.556Z,101102.62
2019-05-25T20:06:56.431Z,101100.19
2019-05-25T20:10:13.455Z,101099.95
2019-05-25T20:13:29.734Z,101106.94
2019-05-25T20:16:37.030Z,101112.36
2019-05-25T20:19:56.756Z,101121.75
2019-05-25T20:23:13.469Z,101113.06
2019-05-25T20:26:30.348Z,101107.84
2019-05-25T20:29:46.912Z,101107.63
2019-05-25T20:33:09.749Z,101104.14
2019-05-25T20:36:26.433Z,101095.50
2019-05-25T20:39:33.986Z,101099.91
2019-05-25T20:42:41.632Z,101099.91
2019-05-25T20:45:49.041Z,101095.20
2019-05-25T20:48:56.436Z,101099.53
2019-05-25T20:52:03.890Z,101097.48
2019-05-25T20:55:12.086Z,101092.70
2019-05-25T20:58:19.462Z,101080.16
2019-05-25T21:01:26.846Z,101084.17
2019-05-25T21:04:34.130Z,101089.16
2019-05-25T21:07:41.411Z,101088.49
2019-05-25T21:10:47.772Z,101090.81
2019-05-25T21:13:55.163Z,101089.02
2019-05-25T21:17:02.458Z,101082.41
2019-05-25T21:20:09.421Z,101082.41
2019-05-25T21:23:16.796Z,101082.42
2019-05-25T21:26:24.303Z,101081.23
2019-05-25T21:29:31.673Z,101086.77
2019-05-25T21:32:38.969Z,101079.95
2019-05-25T21:35:46.427Z,101079.40
2019-05-25T21:39:04.567Z,101076.64
2019-05-25T21:42:10.262Z,101080.09
2019-05-25T21:45:17.631Z,101074.23
2019-05-25T21:48:38.280Z,101077.97
2019-05-25T21:51:54.935Z,101082.94
2019-05-25T21:55:17.651Z,101085.02
2019-05-25T21:58:37.455Z,101070.72
2019-05-25T22:01:43.823Z,101068.94
2019-05-25T22:04:50.700Z,101072.56
2019-05-25T22:07:56.859Z,101076.56
2019-05-25T22:11:04.251Z,101074.56
2019-05-25T22:14:11.810Z,101070.33
2019-05-25T22:17:28.637Z,101052.63
2019-05-25T22:20:45.831Z,101050.14
2019-05-25T22:24:02.467Z,101042.12
2019-05-25T22:27:19.453Z,101045.67
2019-05-25T22:30:35.952Z,101048.58
2019-05-25T22:33:42.367Z,101047.58
2019-05-25T22:36:49.765Z,101050.98
2019-05-25T22:39:57.192Z,101055.62
2019-05-25T22:43:04.660Z,101045.59
2019-05-25T22:46:12.032Z,101043.48
2019-05-25T22:49:28.810Z,101039.17
2019-05-25T22:52:34.582Z,101036.37
2019-05-25T22:55:51.054Z,101023.91
2019-05-25T22:59:07.876Z,101015.05
2019-05-25T23:02:24.606Z,101018.19
2019-05-25T23:05:30.947Z,101022.02
2019-05-25T23:08:38.804Z,101016.50
2019-05-25T23:11:46.145Z,101019.53
2019-05-25T23:15:02.877Z,101011.54
2019-05-25T23:18:19.721Z,101014.25
2019-05-25T23:21:36.226Z,101009.44
2019-05-25T23:24:42.391Z,101014.97
2019-05-25T23:27:49.681Z,101008.69
2019-05-25T23:30:57.118Z,101011.84
2019-05-25T23:34:02.855Z,101006.77
2019-05-25T23:37:14.752Z,101012.02
2019-05-25T23:40:19.608Z,101003.62
2019-05-25T23:43:36.301Z,101002.41
2019-05-25T23:46:53.013Z,100999.98
2019-05-25T23:50:10.360Z,100985.06
2019-05-25T23:53:17.803Z,100989.12
2019-05-25T23:56:25.247Z,100981.48
2019-05-25T23:59:32.681Z,100974.77
